Time;durP1;ratioP1;P1;durP2;ratioP2;P2;SDS_P1;SDS_P2;PMS_P1;PMS_P2;Temp;Humidity;BMP_temperature;BMP_pressure;BME280_temperature;BME280_humidity;BME280_pressure;Samples;Min_cycle;Max_cycle;Signal;HPM_P1;HPM_P2
2022/07/03 00:01:34;;;;;;;3.00;1.48;;;15.80;99.90;;;;;;4996872;28;20125;-67
2022/07/03 00:04:02;;;;;;;2.53;1.70;;;15.80;99.90;;;;;;4999042;28;20068;-68
2022/07/03 00:06:30;;;;;;;3.53;3.20;;;15.80;99.90;;;;;;4995179;28;20227;-70
2022/07/03 00:08:59;;;;;;;4.95;2.15;;;15.80;99.90;;;;;;4996897;28;20045;-68
2022/07/03 00:11:26;;;;;;;3.63;1.73;;;15.80;99.90;;;;;;4997955;28;20536;-67
2022/07/03 00:13:53;;;;;;;2.05;1.73;;;15.80;99.90;;;;;;4994790;28;20100;-66
2022/07/03 00:16:20;;;;;;;3.55;2.20;;;15.80;99.90;;;;;;4992841;28;20164;-66
2022/07/03 00:18:47;;;;;;;2.47;1.90;;;15.70;99.90;;;;;;5003835;28;20050;-71
2022/07/03 00:21:20;;;;;;;1.55;1.40;;;15.70;99.90;;;;;;4992299;28;20112;-67
2022/07/03 00:24:03;;;;;;;2.03;1.60;;;15.70;99.90;;;;;;4990438;28;20116;-69
2022/07/03 00:26:34;;;;;;;1.88;1.77;;;15.70;99.90;;;;;;4991460;28;20213;-67
2022/07/03 00:29:02;;;;;;;3.95;2.25;;;15.70;99.90;;;;;;4996905;28;20057;-67
2022/07/03 00:31:30;;;;;;;1.50;1.40;;;15.60;99.90;;;;;;4993518;28;20085;-69
2022/07/03 00:33:59;;;;;;;2.00;1.90;;;15.60;99.90;;;;;;4993862;28;20053;-67
2022/07/03 00:36:33;;;;;;;1.65;1.55;;;15.60;99.90;;;;;;4998306;28;20066;-69
2022/07/03 00:39:01;;;;;;;3.63;1.85;;;15.60;99.90;;;;;;4996967;28;20054;-71
2022/07/03 00:41:30;;;;;;;1.85;1.75;;;15.50;99.90;;;;;;4988952;28;20630;-74
2022/07/03 00:43:57;;;;;;;1.95;1.70;;;15.50;99.90;;;;;;4991512;28;20046;-67
2022/07/03 00:46:26;;;;;;;2.45;2.10;;;15.50;99.90;;;;;;4988324;28;20050;-67
2022/07/03 00:48:55;;;;;;;3.30;2.47;;;15.50;99.90;;;;;;4991285;28;20093;-66
2022/07/03 00:51:27;;;;;;;3.97;3.45;;;15.50;99.90;;;;;;4993526;28;20136;-67
2022/07/03 00:53:57;;;;;;;3.28;1.90;;;15.50;99.90;;;;;;5004246;28;20049;-71
2022/07/03 00:56:29;;;;;;;1.88;1.77;;;15.50;99.90;;;;;;4988605;28;20576;-67
2022/07/03 00:59:00;;;;;;;3.13;1.65;;;15.40;99.90;;;;;;4992546;28;20108;-71
2022/07/03 01:01:34;;;;;;;5.80;2.35;;;15.50;99.90;;;;;;4987242;28;20042;-70
2022/07/03 01:04:30;;;;;;;3.03;2.25;;;15.40;99.90;;;;;;4989755;28;20053;-68
2022/07/03 01:07:05;;;;;;;3.33;2.08;;;15.40;99.90;;;;;;4993927;28;20108;-70
2022/07/03 01:09:52;;;;;;;2.17;1.83;;;15.40;99.90;;;;;;4989042;28;20136;-67
2022/07/03 01:12:33;;;;;;;2.05;1.73;;;15.40;99.90;;;;;;4993496;28;20066;-68
2022/07/03 01:15:02;;;;;;;4.03;2.10;;;15.40;99.90;;;;;;4993573;28;20069;-67
2022/07/03 01:17:37;;;;;;;3.80;3.17;;;15.40;99.90;;;;;;4994700;28;20131;-68
2022/07/03 01:20:06;;;;;;;2.78;2.00;;;15.40;99.90;;;;;;4993833;28;20058;-67
2022/07/03 01:22:43;;;;;;;3.25;2.13;;;15.40;99.90;;;;;;4992503;28;20057;-67
2022/07/03 01:25:46;;;;;;;2.30;2.10;;;15.40;99.90;;;;;;4995582;28;20062;-73
2022/07/03 01:28:16;;;;;;;6.55;1.98;;;15.40;99.90;;;;;;4984341;28;20061;-70
2022/07/03 01:30:42;;;;;;;11.45;3.42;;;15.30;99.90;;;;;;4990860;28;20139;-67
2022/07/03 01:33:24;;;;;;;3.40;2.65;;;15.30;99.90;;;;;;4994656;28;20073;-67
2022/07/03 01:36:05;;;;;;;2.25;2.05;;;15.30;99.90;;;;;;4991402;28;20046;-66
2022/07/03 01:38:37;;;;;;;1.98;1.88;;;15.20;99.90;;;;;;4991053;28;20423;-68
2022/07/03 01:41:07;;;;;;;3.63;2.38;;;15.20;99.90;;;;;;4997431;28;20050;-68
2022/07/03 01:43:44;;;;;;;3.25;2.08;;;15.20;99.90;;;;;;4995607;28;20149;-67
2022/07/03 01:46:12;;;;;;;2.95;2.65;;;15.20;99.90;;;;;;4999446;28;20160;-69
2022/07/03 01:48:43;;;;;;;2.30;2.20;;;15.10;99.90;;;;;;4998373;28;20053;-73
2022/07/03 01:51:13;;;;;;;1.95;1.85;;;15.10;99.90;;;;;;5001474;28;20050;-67
2022/07/03 01:53:46;;;;;;;2.63;2.28;;;15.10;99.90;;;;;;4986063;28;20510;-67
2022/07/03 01:56:14;;;;;;;3.22;2.30;;;15.00;99.90;;;;;;4990217;28;20047;-68
2022/07/03 01:58:41;;;;;;;2.65;2.20;;;15.00;99.90;;;;;;5000555;28;20135;-66
2022/07/03 02:01:41;;;;;;;2.45;2.25;;;15.00;99.90;;;;;;4993742;28;20046;-67
2022/07/03 02:04:43;;;;;;;3.13;2.83;;;15.00;99.90;;;;;;5012953;28;20041;-70
2022/07/03 02:07:39;;;;;;;4.22;2.78;;;14.90;99.90;;;;;;4970541;28;20057;-69
2022/07/03 02:10:10;;;;;;;3.45;2.53;;;14.90;99.90;;;;;;4989609;28;20058;-66
2022/07/03 02:12:49;;;;;;;9.52;2.88;;;14.90;99.90;;;;;;4993562;28;20050;-67
2022/07/03 02:15:28;;;;;;;2.95;2.10;;;14.80;99.90;;;;;;4996252;28;20053;-68
2022/07/03 02:17:56;;;;;;;1.98;1.83;;;14.80;99.90;;;;;;5015831;28;20671;-66
2022/07/03 02:20:24;;;;;;;2.22;1.80;;;14.80;99.90;;;;;;5007816;28;20113;-66
2022/07/03 02:22:56;;;;;;;2.05;1.90;;;14.80;99.90;;;;;;5013608;28;20050;-68
2022/07/03 02:25:29;;;;;;;2.17;2.08;;;14.80;99.90;;;;;;5007085;28;20065;-68
2022/07/03 02:28:03;;;;;;;2.83;2.63;;;14.80;99.90;;;;;;4991143;28;20106;-68
2022/07/03 02:30:34;;;;;;;7.22;2.80;;;14.80;99.90;;;;;;4994329;28;20127;-68
2022/07/03 02:33:02;;;;;;;4.10;2.15;;;14.70;99.90;;;;;;4999799;28;20745;-66
2022/07/03 02:35:33;;;;;;;2.25;2.03;;;14.70;99.90;;;;;;4992718;28;20177;-71
2022/07/03 02:38:17;;;;;;;3.50;2.75;;;14.80;99.90;;;;;;4997333;28;20054;-71
2022/07/03 02:41:17;;;;;;;9.88;2.92;;;14.80;99.90;;;;;;4995746;28;20061;-69
2022/07/03 02:43:47;;;;;;;4.00;3.03;;;14.70;99.90;;;;;;4990426;28;20723;-67
2022/07/03 02:49:19;;;;;;;2.63;2.08;;;14.70;99.90;;;;;;4993132;28;20536;-69
2022/07/03 02:51:58;;;;;;;3.25;2.95;;;14.70;99.90;;;;;;4995480;28;20049;-68
2022/07/03 02:54:25;;;;;;;2.67;2.47;;;14.80;99.90;;;;;;4986847;28;20113;-67
2022/07/03 02:57:06;;;;;;;3.00;2.80;;;14.80;99.90;;;;;;5002213;28;20053;-70
2022/07/03 02:59:56;;;;;;;2.65;2.50;;;14.80;99.90;;;;;;4985891;28;20055;-67
2022/07/03 03:02:29;;;;;;;3.20;2.83;;;14.80;99.90;;;;;;4998634;28;20113;-68
2022/07/03 03:05:16;;;;;;;4.75;2.97;;;14.80;99.90;;;;;;4993021;28;20299;-71
2022/07/03 03:08:06;;;;;;;2.95;2.72;;;14.80;99.90;;;;;;4992733;28;20182;-67
2022/07/03 03:10:37;;;;;;;2.97;2.30;;;14.80;99.90;;;;;;4963973;28;20047;-66
2022/07/03 03:13:13;;;;;;;3.45;2.50;;;14.80;99.90;;;;;;4994159;28;20042;-69
2022/07/03 03:15:57;;;;;;;2.90;2.60;;;14.90;99.90;;;;;;4993203;28;20058;-69
2022/07/03 03:18:27;;;;;;;2.42;2.22;;;14.80;99.90;;;;;;4999658;28;20038;-66
2022/07/03 03:20:58;;;;;;;;;;;14.90;99.90;;;;;;4998805;28;20778;-68
2022/07/03 03:23:44;;;;;;;;;;;14.90;99.90;;;;;;4989654;28;19925;-68
2022/07/03 03:26:12;;;;;;;2.70;2.50;;;14.90;99.90;;;;;;4998956;28;20386;-67
2022/07/03 03:28:40;;;;;;;3.50;3.22;;;15.00;99.90;;;;;;4990569;28;20050;-68
2022/07/03 03:31:09;;;;;;;2.80;2.60;;;15.00;99.90;;;;;;4993736;28;20050;-68
2022/07/03 03:33:44;;;;;;;2.75;2.55;;;15.00;99.90;;;;;;4991569;28;20062;-72
2022/07/03 03:36:13;;;;;;;3.65;3.03;;;15.10;99.90;;;;;;4992587;28;20049;-68
2022/07/03 03:38:41;;;;;;;6.25;3.00;;;15.10;99.90;;;;;;4991672;28;20070;-69
2022/07/03 03:41:08;;;;;;;3.58;2.72;;;15.20;99.90;;;;;;4993377;28;20125;-67
2022/07/03 03:43:43;;;;;;;2.80;2.60;;;15.30;99.90;;;;;;4991324;28;20050;-66
2022/07/03 03:46:10;;;;;;;4.53;3.38;;;15.40;99.90;;;;;;4993488;28;20054;-67
2022/07/03 03:48:37;;;;;;;2.97;2.75;;;15.50;99.90;;;;;;4992424;28;20057;-68
2022/07/03 03:51:07;;;;;;;6.43;3.15;;;15.60;99.90;;;;;;4995123;28;20049;-66
2022/07/03 03:53:34;;;;;;;3.17;2.97;;;15.60;99.90;;;;;;4985129;28;20419;-66
2022/07/03 03:56:14;;;;;;;4.38;3.53;;;15.70;99.90;;;;;;4993498;28;20872;-66
2022/07/03 03:58:43;;;;;;;2.63;2.42;;;15.70;99.90;;;;;;4991680;28;20060;-72
2022/07/03 04:01:11;;;;;;;6.82;2.67;;;15.80;99.90;;;;;;4990795;28;20132;-69
2022/07/03 04:03:39;;;;;;;4.88;2.33;;;15.90;99.90;;;;;;4997173;28;20444;-67
2022/07/03 04:06:06;;;;;;;6.38;2.60;;;15.90;99.90;;;;;;4990461;28;20516;-72
2022/07/03 04:08:33;;;;;;;2.33;2.13;;;16.00;99.90;;;;;;4992342;28;20639;-66
2022/07/03 04:11:00;;;;;;;4.53;2.90;;;16.10;99.90;;;;;;4995843;28;20059;-67
2022/07/03 04:13:27;;;;;;;2.88;2.53;;;16.20;99.90;;;;;;4996811;28;20746;-70
2022/07/03 04:15:55;;;;;;;3.53;2.85;;;16.30;99.90;;;;;;4993654;28;20069;-70
2022/07/03 04:18:22;;;;;;;2.65;2.28;;;16.40;99.90;;;;;;5008650;28;20052;-67
2022/07/03 04:20:50;;;;;;;3.45;3.13;;;16.40;99.90;;;;;;4986770;28;20058;-69
2022/07/03 04:23:17;;;;;;;3.35;2.25;;;16.50;99.90;;;;;;4993934;28;20041;-69
2022/07/03 04:25:44;;;;;;;3.25;2.20;;;16.50;99.90;;;;;;4987117;28;20068;-67
2022/07/03 04:28:11;;;;;;;6.90;2.55;;;16.60;99.90;;;;;;5002170;28;20130;-71
2022/07/03 04:30:47;;;;;;;6.18;3.00;;;16.80;99.90;;;;;;5003601;28;20065;-69
2022/07/03 04:33:15;;;;;;;3.33;2.42;;;16.90;99.90;;;;;;4987732;28;20141;-66
2022/07/03 04:35:42;;;;;;;7.60;2.97;;;17.00;99.90;;;;;;4991595;28;20192;-69
2022/07/03 04:38:09;;;;;;;4.82;2.38;;;17.10;99.90;;;;;;4993081;28;20038;-67
2022/07/03 04:40:36;;;;;;;3.03;2.35;;;17.10;99.90;;;;;;4985733;28;20054;-67
2022/07/03 04:43:03;;;;;;;2.28;2.17;;;17.10;99.90;;;;;;4993294;28;20054;-67
2022/07/03 04:45:30;;;;;;;2.08;1.58;;;17.20;99.90;;;;;;4987998;28;20141;-69
2022/07/03 04:47:57;;;;;;;3.08;2.50;;;17.30;99.90;;;;;;4990060;28;20133;-68
2022/07/03 04:50:24;;;;;;;3.13;1.77;;;17.40;99.90;;;;;;4993985;28;20562;-68
2022/07/03 04:52:50;;;;;;;3.97;1.75;;;17.50;99.90;;;;;;4985496;28;20746;-67
2022/07/03 04:55:17;;;;;;;3.58;2.90;;;17.60;99.90;;;;;;4989094;28;20061;-67
2022/07/03 04:57:44;;;;;;;4.65;1.98;;;17.70;99.90;;;;;;4996526;28;20062;-67
2022/07/03 05:00:12;;;;;;;3.35;2.22;;;17.80;99.90;;;;;;4989609;28;20046;-69
2022/07/03 05:02:39;;;;;;;2.40;2.20;;;17.90;99.90;;;;;;4991758;28;20050;-68
2022/07/03 05:05:06;;;;;;;2.90;1.77;;;18.00;99.90;;;;;;4988559;28;20046;-66
2022/07/03 05:07:33;;;;;;;2.92;2.30;;;18.00;99.90;;;;;;4993881;28;20223;-69
2022/07/03 05:10:00;;;;;;;2.60;1.88;;;18.00;99.90;;;;;;4995285;28;20054;-67
2022/07/03 05:12:27;;;;;;;3.83;1.90;;;18.10;99.90;;;;;;4996671;28;20096;-72
2022/07/03 05:14:54;;;;;;;3.03;1.70;;;18.10;99.90;;;;;;4995018;28;20128;-71
2022/07/03 05:17:21;;;;;;;1.65;1.55;;;18.10;99.90;;;;;;5002541;28;20081;-67
2022/07/03 05:20:23;;;;;;;3.53;1.73;;;18.10;99.90;;;;;;4994534;28;20058;-66
2022/07/03 05:22:35;;;;;;;3.28;1.63;;;18.20;99.90;;;;;;4996813;28;20054;-69
2022/07/03 05:25:02;;;;;;;1.98;1.30;;;18.30;99.90;;;;;;4992877;28;20161;-72
2022/07/03 05:27:29;;;;;;;3.70;1.80;;;18.30;99.90;;;;;;5011221;28;20151;-69
2022/07/03 05:29:56;;;;;;;6.95;2.83;;;18.30;99.90;;;;;;4993321;28;20054;-68
2022/07/03 05:32:22;;;;;;;5.10;2.05;;;18.40;99.90;;;;;;5000468;28;20065;-67
2022/07/03 05:34:49;;;;;;;1.77;1.58;;;18.50;99.90;;;;;;4997685;28;20061;-69
2022/07/03 05:37:16;;;;;;;4.93;2.45;;;18.60;99.90;;;;;;4994805;28;20196;-69
2022/07/03 05:39:43;;;;;;;3.03;1.52;;;18.60;99.90;;;;;;4991427;28;20062;-70
2022/07/03 05:42:10;;;;;;;8.10;1.75;;;18.60;99.90;;;;;;5005049;28;20092;-73
2022/07/03 05:44:37;;;;;;;2.80;2.10;;;18.70;99.90;;;;;;4994532;28;20077;-69
2022/07/03 05:47:04;;;;;;;3.60;1.88;;;18.70;99.90;;;;;;4993801;28;20522;-67
2022/07/03 05:49:31;;;;;;;1.80;1.60;;;18.90;99.90;;;;;;4994912;28;20108;-67
2022/07/03 05:51:58;;;;;;;1.90;1.30;;;18.90;99.90;;;;;;4997149;28;20405;-68
2022/07/03 05:54:25;;;;;;;1.40;1.30;;;18.90;99.90;;;;;;4989589;28;20054;-66
2022/07/03 05:56:52;;;;;;;2.85;1.27;;;18.90;99.90;;;;;;4994347;28;20053;-67
2022/07/03 05:59:19;;;;;;;2.15;1.27;;;19.00;99.90;;;;;;4991115;28;20050;-66
2022/07/03 06:01:46;;;;;;;1.88;1.67;;;19.10;99.90;;;;;;4995965;28;20052;-69
2022/07/03 06:04:13;;;;;;;3.08;1.67;;;19.20;99.90;;;;;;4993496;28;20240;-67
2022/07/03 06:06:40;;;;;;;2.60;1.50;;;19.10;99.90;;;;;;4997175;28;20892;-68
2022/07/03 06:09:07;;;;;;;1.42;1.33;;;19.20;99.90;;;;;;4997241;28;20488;-70
2022/07/03 06:11:40;;;;;;;1.92;1.63;;;19.20;99.90;;;;;;4996898;28;20939;-66
2022/07/03 06:14:07;;;;;;;2.00;1.90;;;19.20;99.90;;;;;;4999161;28;20050;-69
2022/07/03 06:16:34;;;;;;;2.80;1.45;;;19.30;99.90;;;;;;4995280;28;20054;-66
2022/07/03 06:19:01;;;;;;;1.73;1.30;;;19.30;99.90;;;;;;5001767;28;20046;-66
2022/07/03 06:21:28;;;;;;;4.00;1.20;;;19.40;99.90;;;;;;4989864;28;20116;-70
2022/07/03 06:23:55;;;;;;;2.75;1.40;;;19.40;99.90;;;;;;4999947;28;20837;-71
2022/07/03 06:26:22;;;;;;;2.08;1.60;;;19.50;99.90;;;;;;4998443;28;20074;-70
2022/07/03 06:28:49;;;;;;;3.72;1.38;;;19.50;99.90;;;;;;4997543;28;20464;-69
2022/07/03 06:31:16;;;;;;;3.20;1.38;;;19.60;99.90;;;;;;4992895;28;20107;-69
2022/07/03 06:33:43;;;;;;;1.50;1.33;;;19.60;99.90;;;;;;4999844;28;20694;-69
2022/07/03 06:36:10;;;;;;;1.45;1.33;;;19.70;99.90;;;;;;4997270;28;20158;-71
2022/07/03 06:38:37;;;;;;;2.13;1.88;;;19.70;99.90;;;;;;4994033;28;20058;-68
2022/07/03 06:41:04;;;;;;;3.08;0.95;;;19.70;99.90;;;;;;4995809;28;20151;-72
2022/07/03 06:43:31;;;;;;;1.85;1.70;;;19.70;99.90;;;;;;4994273;28;20054;-68
2022/07/03 06:45:58;;;;;;;1.50;1.25;;;19.80;99.90;;;;;;4995271;28;20101;-67
2022/07/03 06:48:25;;;;;;;1.33;0.80;;;19.80;99.90;;;;;;4990247;28;20046;-70
2022/07/03 06:50:52;;;;;;;2.05;1.10;;;19.90;99.90;;;;;;4999339;28;20046;-70
2022/07/03 06:53:19;;;;;;;2.78;1.05;;;19.90;99.90;;;;;;5000438;28;20038;-68
2022/07/03 06:55:46;;;;;;;1.50;1.30;;;19.90;99.90;;;;;;4990706;28;20081;-69
2022/07/03 06:58:13;;;;;;;1.17;1.08;;;20.00;99.90;;;;;;4999582;28;20124;-68
2022/07/03 07:00:41;;;;;;;1.20;0.80;;;20.00;99.90;;;;;;4990310;28;20050;-67
2022/07/03 07:03:08;;;;;;;3.75;1.90;;;20.00;99.90;;;;;;4976280;28;20689;-67
2022/07/03 07:05:36;;;;;;;1.63;0.90;;;20.10;99.90;;;;;;4996007;28;20064;-70
2022/07/03 07:08:03;;;;;;;1.75;1.23;;;20.20;99.90;;;;;;4995370;28;20050;-67
2022/07/03 07:10:30;;;;;;;1.50;1.40;;;20.20;99.90;;;;;;5001060;28;20116;-69
2022/07/03 07:12:57;;;;;;;5.13;1.70;;;20.20;99.90;;;;;;4989550;28;20152;-66
2022/07/03 07:15:24;;;;;;;4.63;2.33;;;20.20;99.90;;;;;;4990636;28;20408;-67
2022/07/03 07:17:51;;;;;;;2.88;2.58;;;20.30;99.90;;;;;;4994352;28;20711;-70
2022/07/03 07:20:18;;;;;;;3.03;2.40;;;20.40;99.90;;;;;;4988971;28;20066;-67
2022/07/03 07:22:45;;;;;;;2.95;1.73;;;20.40;99.90;;;;;;4997866;28;20575;-66
2022/07/03 07:25:11;;;;;;;5.03;2.75;;;20.40;99.90;;;;;;4991233;28;20050;-66
2022/07/03 07:27:39;;;;;;;3.22;2.22;;;20.30;99.90;;;;;;4991627;28;20050;-68
2022/07/03 07:30:06;;;;;;;2.47;1.80;;;20.30;99.90;;;;;;4996252;28;20451;-67
2022/07/03 07:32:33;;;;;;;2.15;1.58;;;20.40;99.90;;;;;;4992411;28;20512;-66
2022/07/03 07:35:00;;;;;;;2.35;2.17;;;20.50;99.90;;;;;;4990977;28;20058;-70
2022/07/03 07:37:28;;;;;;;3.42;2.28;;;20.50;99.90;;;;;;4991409;28;20496;-68
2022/07/03 07:39:55;;;;;;;2.50;2.17;;;20.40;99.90;;;;;;4997604;28;20094;-66
2022/07/03 07:42:24;;;;;;;3.40;2.35;;;20.30;99.90;;;;;;4994184;28;20073;-69
2022/07/03 07:44:51;;;;;;;3.25;2.35;;;20.30;99.90;;;;;;4994873;28;20050;-67
2022/07/03 07:47:18;;;;;;;2.60;2.33;;;20.30;99.90;;;;;;4995472;28;20069;-66
2022/07/03 07:49:45;;;;;;;2.40;1.63;;;20.30;99.90;;;;;;4997243;28;20070;-66
2022/07/03 07:52:12;;;;;;;1.45;1.35;;;20.30;99.90;;;;;;4998197;28;20730;-73
2022/07/03 07:54:39;;;;;;;3.03;2.60;;;20.30;99.90;;;;;;4992318;28;20141;-68
2022/07/03 07:57:06;;;;;;;1.77;1.67;;;20.40;99.90;;;;;;4996013;28;20058;-69
2022/07/03 07:59:33;;;;;;;4.85;2.92;;;20.60;99.90;;;;;;4991526;28;20065;-67
2022/07/03 08:07:37;;;;;;;3.10;2.17;;;20.40;99.90;;;;;;4987027;28;20535;-71
2022/07/03 08:10:04;;;;;;;3.45;1.80;;;20.50;99.90;;;;;;4990312;28;20841;-67
2022/07/03 08:12:31;;;;;;;2.97;1.73;;;20.60;99.90;;;;;;4988977;28;20137;-70
2022/07/03 08:14:58;;;;;;;4.15;1.70;;;20.60;99.90;;;;;;4992724;28;20185;-69
2022/07/03 08:17:25;;;;;;;3.17;2.78;;;20.60;99.90;;;;;;4995671;28;20134;-66
2022/07/03 08:19:52;;;;;;;4.30;3.30;;;20.70;99.90;;;;;;4991745;28;20232;-67
2022/07/03 08:22:19;;;;;;;3.88;1.63;;;20.70;99.90;;;;;;4989232;28;20042;-69
2022/07/03 08:24:46;;;;;;;3.38;2.28;;;20.80;99.90;;;;;;4998157;28;20140;-71
2022/07/03 08:27:13;;;;;;;3.40;2.30;;;20.70;99.90;;;;;;4995000;28;20050;-72
2022/07/03 08:29:40;;;;;;;2.30;2.03;;;20.60;99.90;;;;;;4993062;28;20070;-70
2022/07/03 08:32:07;;;;;;;2.72;2.53;;;20.50;99.90;;;;;;4994884;28;20057;-70
2022/07/03 08:34:34;;;;;;;2.35;2.15;;;20.40;99.90;;;;;;4994977;28;20542;-66
2022/07/03 08:37:01;;;;;;;7.05;3.20;;;20.30;99.90;;;;;;4994032;28;20049;-67
2022/07/03 08:39:28;;;;;;;6.93;3.00;;;20.20;99.90;;;;;;4992365;28;20093;-69
2022/07/03 08:41:56;;;;;;;3.80;3.47;;;20.30;99.90;;;;;;4993932;28;20510;-70
2022/07/03 08:44:24;;;;;;;6.10;3.00;;;20.20;99.90;;;;;;4991828;28;20061;-69
2022/07/03 08:46:53;;;;;;;3.97;2.65;;;20.40;99.90;;;;;;4993403;28;20116;-72
2022/07/03 08:49:20;;;;;;;4.22;2.95;;;20.40;99.90;;;;;;4991610;28;20049;-66
2022/07/03 08:51:49;;;;;;;4.53;2.63;;;20.30;99.90;;;;;;4991886;28;20522;-68
2022/07/03 08:54:16;;;;;;;3.67;2.97;;;20.40;99.90;;;;;;4989746;28;20045;-68
2022/07/03 08:56:44;;;;;;;4.75;3.00;;;20.50;99.90;;;;;;4988619;28;20141;-67
2022/07/03 08:59:13;;;;;;;3.25;2.30;;;20.50;99.90;;;;;;4989074;28;20058;-69
2022/07/03 09:01:42;;;;;;;5.05;2.83;;;20.50;99.90;;;;;;4996222;28;20150;-70
2022/07/03 09:04:13;;;;;;;2.67;2.30;;;20.40;99.90;;;;;;4990580;28;20050;-67
2022/07/03 09:06:41;;;;;;;10.90;3.55;;;20.30;99.90;;;;;;4990400;28;20124;-68
2022/07/03 09:09:08;;;;;;;2.50;2.30;;;20.30;99.90;;;;;;4993809;28;20074;-69
2022/07/03 09:11:37;;;;;;;4.40;2.45;;;20.40;99.90;;;;;;4993453;28;20045;-67
2022/07/03 09:14:06;;;;;;;4.28;2.42;;;20.50;99.90;;;;;;4990418;28;20400;-69
2022/07/03 09:16:37;;;;;;;4.60;2.85;;;20.50;99.90;;;;;;4994455;28;20104;-67
2022/07/03 09:19:04;;;;;;;4.78;2.45;;;20.50;99.90;;;;;;4991814;28;20058;-67
2022/07/03 09:21:42;;;;;;;3.42;2.83;;;20.70;99.90;;;;;;4986257;28;20133;-67
2022/07/03 09:24:10;;;;;;;4.93;2.42;;;20.70;99.90;;;;;;4996140;28;20049;-68
2022/07/03 09:26:51;;;;;;;4.10;2.65;;;20.80;99.90;;;;;;4993784;28;20601;-68
2022/07/03 09:29:19;;;;;;;2.97;2.58;;;21.00;99.90;;;;;;4994164;28;20057;-68
2022/07/03 09:31:54;;;;;;;3.10;2.35;;;21.20;99.90;;;;;;4987469;28;20050;-67
2022/07/03 09:34:23;;;;;;;3.13;1.65;;;21.40;99.90;;;;;;4986329;28;20046;-71
2022/07/03 09:36:51;;;;;;;2.10;1.67;;;21.50;99.90;;;;;;4991224;28;20132;-69
2022/07/03 09:39:30;;;;;;;1.58;1.48;;;21.50;99.90;;;;;;4996568;28;20356;-73
2022/07/03 09:42:02;;;;;;;2.78;1.98;;;21.40;99.90;;;;;;4989205;28;20050;-67
2022/07/03 09:44:33;;;;;;;5.03;2.30;;;21.50;99.90;;;;;;4997046;28;20050;-70
2022/07/03 09:47:09;;;;;;;1.83;1.60;;;21.70;99.90;;;;;;4994548;28;20053;-67
2022/07/03 09:49:53;;;;;;;1.98;1.63;;;21.60;99.90;;;;;;4997115;28;20058;-67
2022/07/03 09:52:33;;;;;;;3.25;1.83;;;21.50;99.90;;;;;;4997700;28;20045;-68
2022/07/03 09:55:09;;;;;;;2.27;1.83;;;21.60;99.90;;;;;;4995506;28;20062;-69
2022/07/03 09:57:38;;;;;;;1.83;1.42;;;21.80;99.90;;;;;;4995860;28;20491;-67
2022/07/03 10:00:14;;;;;;;3.83;1.50;;;21.80;99.90;;;;;;4994541;28;20389;-68
2022/07/03 10:02:59;;;;;;;3.65;1.50;;;21.80;99.90;;;;;;4993204;28;20062;-69
2022/07/03 10:05:35;;;;;;;2.28;1.50;;;21.90;99.90;;;;;;4997557;28;20046;-67
2022/07/03 10:08:05;;;;;;;2.42;1.42;;;21.90;99.90;;;;;;4996180;28;20909;-69
2022/07/03 10:10:46;;;;;;;2.70;1.70;;;21.90;99.90;;;;;;4998954;28;20100;-70
2022/07/03 10:13:15;;;;;;;2.67;1.25;;;22.00;99.90;;;;;;4999018;28;20056;-73
2022/07/03 10:15:43;;;;;;;2.05;1.00;;;22.10;99.90;;;;;;4996026;28;20050;-68
2022/07/03 10:18:12;;;;;;;2.55;1.58;;;22.20;99.90;;;;;;5001319;28;20054;-69
2022/07/03 10:20:50;;;;;;;1.38;1.27;;;22.20;99.90;;;;;;4990022;28;20124;-69
2022/07/03 10:23:20;;;;;;;2.03;1.35;;;22.40;99.90;;;;;;4992558;28;20046;-72
2022/07/03 10:25:48;;;;;;;2.25;1.90;;;22.00;99.90;;;;;;4993043;28;20358;-68
2022/07/03 10:28:17;;;;;;;2.67;1.58;;;21.90;99.90;;;;;;4992594;28;20041;-67
2022/07/03 10:30:45;;;;;;;1.70;1.60;;;21.90;99.90;;;;;;4991843;28;20046;-68
2022/07/03 10:33:13;;;;;;;1.40;1.05;;;21.90;99.90;;;;;;4999588;28;20815;-69
2022/07/03 10:35:48;;;;;;;2.03;1.40;;;21.90;99.90;;;;;;4992810;28;20746;-67
2022/07/03 10:38:22;;;;;;;1.13;1.05;;;22.10;99.90;;;;;;4996730;28;20206;-66
2022/07/03 10:46:46;;;;;;;2.08;1.23;;;22.00;99.90;;;;;;4996382;28;20088;-68
2022/07/03 10:49:13;;;;;;;2.67;1.50;;;22.30;99.90;;;;;;4991368;28;20045;-68
2022/07/03 10:52:02;;;;;;;1.73;1.40;;;22.20;99.90;;;;;;4990447;28;20054;-69
2022/07/03 10:54:34;;;;;;;4.93;3.07;;;22.10;99.90;;;;;;4998112;28;20050;-68
2022/07/03 10:57:01;;;;;;;3.63;1.60;;;22.10;99.90;;;;;;5001841;28;20065;-70
2022/07/03 10:59:44;;;;;;;2.03;1.30;;;22.20;99.90;;;;;;4991359;28;20218;-66
2022/07/03 11:02:23;;;;;;;4.10;2.55;;;22.40;99.90;;;;;;4996956;28;20068;-66
2022/07/03 11:04:56;;;;;;;1.98;1.88;;;22.40;99.90;;;;;;4994828;28;20062;-70
2022/07/03 11:07:31;;;;;;;3.28;1.73;;;22.50;99.90;;;;;;4997824;28;20056;-69
2022/07/03 11:10:10;;;;;;;4.40;1.52;;;22.50;99.90;;;;;;5004545;28;20095;-66
2022/07/03 11:12:56;;;;;;;3.57;1.27;;;22.40;99.90;;;;;;4988213;28;20463;-66
2022/07/03 11:15:32;;;;;;;6.72;2.38;;;22.40;99.90;;;;;;4995578;28;20077;-66
2022/07/03 11:18:05;;;;;;;2.40;1.67;;;22.50;99.90;;;;;;4997744;28;20692;-66
2022/07/03 11:20:33;;;;;;;4.40;1.70;;;22.40;99.90;;;;;;4989046;28;20058;-68
2022/07/03 11:23:28;;;;;;;1.98;1.85;;;22.40;99.90;;;;;;4994555;28;20116;-67
2022/07/03 11:26:01;;;;;;;1.98;1.40;;;22.50;99.90;;;;;;4991348;28;20049;-66
2022/07/03 11:28:31;;;;;;;2.28;2.08;;;22.50;99.90;;;;;;5010745;28;20076;-70
2022/07/03 11:33:44;;;;;;;19.27;2.70;;;22.40;99.90;;;;;;4985768;28;20149;-66
2022/07/03 11:36:11;;;;;;;2.55;1.42;;;22.50;99.90;;;;;;4990681;28;20049;-68
2022/07/03 11:38:38;;;;;;;2.15;1.83;;;22.50;99.90;;;;;;4993660;28;20101;-66
2022/07/03 11:41:10;;;;;;;4.78;1.67;;;22.70;99.90;;;;;;4993987;28;20044;-68
2022/07/03 11:43:45;;;;;;;3.58;1.40;;;22.60;99.90;;;;;;4989650;28;20688;-68
2022/07/03 11:46:20;;;;;;;4.30;1.50;;;22.60;99.90;;;;;;4990847;28;20104;-68
2022/07/03 11:48:47;;;;;;;8.05;4.28;;;22.60;99.90;;;;;;4999604;28;20046;-70
2022/07/03 11:51:15;;;;;;;2.28;1.98;;;22.40;99.90;;;;;;4990683;28;20077;-69
2022/07/03 11:53:42;;;;;;;2.40;1.77;;;22.60;99.90;;;;;;4983356;28;20089;-68
2022/07/03 11:56:14;;;;;;;2.40;1.45;;;22.60;99.90;;;;;;4994612;28;20104;-67
2022/07/03 11:58:42;;;;;;;3.80;1.50;;;22.80;99.90;;;;;;4991931;28;20093;-70
2022/07/03 12:01:10;;;;;;;3.10;1.88;;;22.80;99.90;;;;;;4993382;28;20132;-70
2022/07/03 12:03:37;;;;;;;2.08;1.45;;;22.80;99.90;;;;;;4993142;28;20057;-70
2022/07/03 12:06:04;;;;;;;4.68;1.70;;;22.90;99.90;;;;;;4991950;28;20043;-66
2022/07/03 12:08:32;;;;;;;6.30;1.63;;;22.90;99.90;;;;;;4992268;28;20061;-72
2022/07/03 12:11:07;;;;;;;2.33;1.60;;;22.90;99.90;;;;;;4991904;28;20074;-71
2022/07/03 12:13:34;;;;;;;2.08;1.85;;;22.90;99.90;;;;;;4996015;28;20057;-66
2022/07/03 12:16:10;;;;;;;2.80;1.58;;;22.90;99.90;;;;;;4990840;28;20535;-70
2022/07/03 12:18:47;;;;;;;2.58;1.70;;;22.90;99.90;;;;;;5000131;28;20153;-70
2022/07/03 12:21:16;;;;;;;2.05;1.38;;;22.90;99.90;;;;;;4995227;28;20459;-70
2022/07/03 12:23:50;;;;;;;1.40;1.30;;;22.80;99.90;;;;;;4993269;28;20152;-67
2022/07/03 12:26:34;;;;;;;1.80;1.48;;;22.90;99.90;;;;;;4995843;28;20579;-67
2022/07/03 12:29:10;;;;;;;3.08;1.40;;;22.80;99.90;;;;;;4995338;28;20061;-67
2022/07/03 12:31:40;;;;;;;2.83;1.42;;;22.60;99.90;;;;;;4990780;28;20156;-67
2022/07/03 12:34:08;;;;;;;2.15;1.70;;;22.70;99.90;;;;;;4993869;28;20048;-67
2022/07/03 12:36:35;;;;;;;3.88;1.25;;;22.80;99.90;;;;;;4996997;28;20066;-67
2022/07/03 12:39:02;;;;;;;1.50;0.93;;;22.90;99.90;;;;;;4990497;28;20121;-70
2022/07/03 12:41:29;;;;;;;1.77;1.55;;;23.10;99.90;;;;;;4995148;28;20050;-68
2022/07/03 12:43:59;;;;;;;1.30;1.20;;;23.10;99.90;;;;;;4989750;28;20069;-67
2022/07/03 12:46:35;;;;;;;6.38;1.58;;;23.20;99.90;;;;;;4990380;28;20128;-75
2022/07/03 12:49:10;;;;;;;2.90;2.05;;;23.00;99.90;;;;;;4992937;28;21490;-66
2022/07/03 12:51:45;;;;;;;1.55;1.15;;;22.80;99.90;;;;;;4995741;28;20053;-73
2022/07/03 12:54:22;;;;;;;4.63;1.63;;;23.00;99.90;;;;;;4991321;28;20128;-66
2022/07/03 13:00:10;;;;;;;3.05;1.45;;;23.10;99.90;;;;;;4985791;28;20112;-66
2022/07/03 13:02:41;;;;;;;1.90;1.00;;;23.20;99.90;;;;;;4992588;28;20054;-68
2022/07/03 13:05:22;;;;;;;3.03;1.52;;;23.10;99.90;;;;;;4991478;28;20050;-67
2022/07/03 13:07:54;;;;;;;2.45;1.10;;;23.30;99.90;;;;;;4988798;28;20038;-68
2022/07/03 13:10:23;;;;;;;1.67;1.38;;;23.40;99.90;;;;;;4991734;28;20107;-67
2022/07/03 13:12:53;;;;;;;2.97;1.48;;;23.20;99.90;;;;;;4986839;28;20102;-68
2022/07/03 13:15:23;;;;;;;2.60;1.57;;;23.10;99.90;;;;;;4994207;28;20077;-66
2022/07/03 13:17:52;;;;;;;;;;;23.10;99.90;;;;;;4996812;28;20156;-67
2022/07/03 13:20:24;;;;;;;4.43;1.63;;;23.20;99.90;;;;;;4998308;28;19924;-66
2022/07/03 13:22:53;;;;;;;4.93;1.65;;;23.20;99.90;;;;;;4989377;28;20050;-71
2022/07/03 13:25:20;;;;;;;2.53;1.73;;;23.40;99.90;;;;;;4995073;28;20080;-71
2022/07/03 13:27:47;;;;;;;2.78;1.15;;;23.50;99.90;;;;;;4994304;28;20169;-69